Time;durP1;ratioP1;P1;durP2;ratioP2;P2;SDS_P1;SDS_P2;PMS_P1;PMS_P2;Temp;Humidity;BMP_temperature;BMP_pressure;BME280_temperature;BME280_humidity;BME280_pressure;Samples;Min_cycle;Max_cycle;Signal;HPM_P1;HPM_P2
2022/08/08 00:02:05;;;;;;;10.02;5.50;;;;;;;14.31;100.00;95930.56;5049799;28;20498;-77
2022/08/08 00:04:40;;;;;;;9.48;5.75;;;;;;;14.28;100.00;95929.31;5050815;28;20049;-77
2022/08/08 00:07:17;;;;;;;10.43;5.15;;;;;;;14.24;100.00;95927.47;5047668;28;20052;-77
2022/08/08 00:09:57;;;;;;;9.13;5.10;;;;;;;14.23;100.00;95931.22;5057349;28;20045;-78
2022/08/08 00:12:36;;;;;;;8.30;5.00;;;;;;;14.24;100.00;95916.88;5040196;28;20053;-78
2022/08/08 00:15:10;;;;;;;10.38;5.20;;;;;;;14.17;100.00;95917.25;5053011;28;20060;-78
2022/08/08 00:18:05;;;;;;;11.65;6.13;;;;;;;14.18;100.00;95919.59;5041921;28;20064;-77
2022/08/08 00:20:51;;;;;;;7.47;5.30;;;;;;;14.07;100.00;95922.66;5050220;28;20139;-78
2022/08/08 00:23:25;;;;;;;9.65;5.88;;;;;;;14.09;100.00;95925.78;5045959;28;20041;-78
2022/08/08 00:25:55;;;;;;;10.02;5.00;;;;;;;14.11;100.00;95915.75;5054175;28;20036;-77
2022/08/08 00:28:29;;;;;;;7.13;5.00;;;;;;;14.01;100.00;95920.06;5052812;28;20048;-77
2022/08/08 00:30:56;;;;;;;;;;;;;;;13.89;100.00;95922.28;5049558;28;20418;-77
2022/08/08 00:33:31;;;;;;;8.35;4.97;;;;;;;13.86;100.00;95917.56;5052353;28;19920;-78
2022/08/08 00:36:19;;;;;;;9.35;5.20;;;;;;;13.82;100.00;95921.81;5053129;28;20036;-77
2022/08/08 00:39:10;;;;;;;10.15;5.55;;;;;;;13.80;100.00;95905.47;5041978;28;20486;-77
2022/08/08 00:42:24;;;;;;;7.40;5.18;;;;;;;13.83;100.00;95912.81;5051193;28;20049;-77
2022/08/08 00:45:23;;;;;;;7.03;4.85;;;;;;;13.86;100.00;95912.25;5044591;28;20068;-77
2022/08/08 00:48:39;;;;;;;7.13;4.95;;;;;;;13.81;100.00;95914.97;5046247;28;20041;-77
2022/08/08 00:51:08;;;;;;;7.80;5.30;;;;;;;13.87;100.00;95913.84;5052026;28;20045;-77
2022/08/08 00:54:08;;;;;;;11.07;5.07;;;;;;;13.83;100.00;95918.13;5050421;28;20048;-77
2022/08/08 00:56:48;;;;;;;9.52;5.65;;;;;;;13.76;100.00;95912.38;5044985;28;20487;-77
2022/08/08 00:59:51;;;;;;;8.30;5.07;;;;;;;13.65;100.00;95912.47;5053493;28;20041;-77
2022/08/08 01:02:16;;;;;;;7.70;5.35;;;;;;;13.54;100.00;95916.28;5055481;28;20045;-78
2022/08/08 01:05:06;;;;;;;7.25;4.93;;;;;;;13.58;100.00;95912.00;5045495;28;20411;-77
2022/08/08 01:07:43;;;;;;;9.35;5.20;;;;;;;13.73;100.00;95918.22;5053882;28;20037;-78
2022/08/08 01:10:40;;;;;;;9.45;5.22;;;;;;;13.66;100.00;95923.81;5050836;28;20044;-77
2022/08/08 01:13:38;;;;;;;7.97;5.20;;;;;;;13.65;100.00;95915.13;5050104;28;20045;-77
2022/08/08 01:16:27;;;;;;;7.35;5.35;;;;;;;13.62;100.00;95913.03;5052574;28;20052;-78
2022/08/08 01:19:20;;;;;;;9.13;5.50;;;;;;;13.62;100.00;95912.22;5030752;28;20596;-77
2022/08/08 01:22:23;;;;;;;6.05;4.90;;;;;;;13.66;100.00;95922.00;5053461;28;20053;-77
2022/08/08 01:25:03;;;;;;;8.63;5.38;;;;;;;13.60;100.00;95920.44;5050316;28;20040;-77
2022/08/08 01:27:47;;;;;;;7.88;5.82;;;;;;;13.59;100.00;95924.16;5049341;28;20128;-77
2022/08/08 01:30:32;;;;;;;6.53;4.68;;;;;;;13.43;100.00;95917.41;5050214;28;20049;-77
2022/08/08 01:33:19;;;;;;;7.35;5.05;;;;;;;13.49;100.00;95918.97;5046778;28;20049;-77
2022/08/08 01:36:03;;;;;;;8.52;5.25;;;;;;;13.45;100.00;95912.66;5048640;28;20440;-77
2022/08/08 01:38:37;;;;;;;7.47;4.90;;;;;;;13.39;100.00;95919.03;5041596;28;20049;-77
2022/08/08 01:41:32;;;;;;;;;;;;;;;13.37;100.00;95915.88;5049723;28;20048;-78
2022/08/08 01:44:28;;;;;;;9.25;4.47;;;;;;;13.23;100.00;95924.44;4997641;28;20016;-77
2022/08/08 01:47:31;;;;;;;10.05;4.80;;;;;;;13.29;100.00;95920.66;5048729;28;20094;-77
2022/08/08 01:50:24;;;;;;;7.35;4.97;;;;;;;13.28;100.00;95919.09;5049488;28;20064;-77
2022/08/08 01:53:02;;;;;;;7.90;5.20;;;;;;;13.19;100.00;95920.75;5045369;28;20040;-77
2022/08/08 01:56:02;;;;;;;10.25;5.35;;;;;;;13.18;100.00;95919.16;5049823;28;20071;-77
2022/08/08 01:58:51;;;;;;;8.13;4.95;;;;;;;13.20;100.00;95927.59;5044626;28;20065;-77
2022/08/08 02:01:44;;;;;;;8.10;5.35;;;;;;;13.13;100.00;95921.84;5039737;28;20045;-77
2022/08/08 02:04:29;;;;;;;6.82;4.90;;;;;;;13.15;100.00;95925.00;5051116;28;20510;-78
2022/08/08 02:07:18;;;;;;;13.93;4.97;;;;;;;12.90;100.00;95929.41;5055989;28;20038;-78
2022/08/08 02:09:55;;;;;;;7.43;5.00;;;;;;;12.97;100.00;95939.63;5051825;28;20118;-77
2022/08/08 02:12:36;;;;;;;7.25;5.20;;;;;;;13.05;100.00;95933.00;5044465;28;20538;-77
2022/08/08 02:15:23;;;;;;;8.32;5.18;;;;;;;13.03;100.00;95935.94;5048697;28;20064;-77
2022/08/08 02:17:57;;;;;;;10.35;5.32;;;;;;;13.08;100.00;95940.38;5049227;28;20048;-77
2022/08/08 02:20:34;;;;;;;8.80;5.28;;;;;;;13.07;100.00;95936.16;5047689;28;20091;-77
2022/08/08 02:23:19;;;;;;;9.95;5.07;;;;;;;13.05;100.00;95940.94;5050085;28;20033;-77
2022/08/08 02:25:55;;;;;;;7.95;4.80;;;;;;;12.98;100.00;95942.00;5051131;28;20040;-78
2022/08/08 02:28:56;;;;;;;6.72;4.80;;;;;;;13.02;100.00;95936.19;5050606;28;20063;-78
2022/08/08 02:31:57;;;;;;;8.05;4.93;;;;;;;12.97;100.00;95935.16;5050783;28;20045;-78
2022/08/08 02:34:39;;;;;;;6.53;4.78;;;;;;;12.93;100.00;95949.97;5047294;28;20040;-78
2022/08/08 02:37:19;;;;;;;9.98;5.13;;;;;;;12.88;100.00;95942.06;5048672;28;20053;-78
2022/08/08 02:40:03;;;;;;;6.28;4.43;;;;;;;12.80;100.00;95942.63;5045807;28;20715;-78
2022/08/08 02:43:02;;;;;;;6.90;5.00;;;;;;;12.81;100.00;95944.22;5049909;28;20045;-78
2022/08/08 02:45:55;;;;;;;8.80;4.85;;;;;;;12.79;100.00;95949.00;5052069;28;20045;-78
2022/08/08 02:48:47;;;;;;;8.52;4.95;;;;;;;12.74;100.00;95951.66;5046063;28;20044;-78
2022/08/08 02:51:34;;;;;;;7.18;5.03;;;;;;;12.64;100.00;95948.03;5047684;28;20045;-78
2022/08/08 02:54:34;;;;;;;8.43;4.93;;;;;;;12.67;100.00;95951.16;5050006;28;20514;-77
2022/08/08 02:57:02;;;;;;;9.30;5.07;;;;;;;12.64;100.00;95948.03;5049970;28;20080;-78
2022/08/08 02:59:37;;;;;;;13.82;5.22;;;;;;;12.64;100.00;95953.28;5042623;28;20056;-78
2022/08/08 03:02:32;;;;;;;7.00;5.40;;;;;;;12.61;100.00;95948.56;5044064;28;20049;-78
2022/08/08 03:05:26;;;;;;;9.48;5.28;;;;;;;12.56;100.00;95948.56;5047038;28;20506;-79
2022/08/08 03:08:13;;;;;;;7.20;4.40;;;;;;;12.52;100.00;95942.25;5052913;28;20069;-78
2022/08/08 03:11:17;;;;;;;8.55;4.80;;;;;;;12.53;100.00;95951.75;5045575;28;20041;-78
2022/08/08 03:14:00;;;;;;;8.00;5.03;;;;;;;12.48;100.00;95946.47;5046941;28;20037;-77
2022/08/08 03:16:50;;;;;;;7.50;4.90;;;;;;;12.45;100.00;95952.31;5040587;28;20071;-76
2022/08/08 03:19:43;;;;;;;7.35;5.05;;;;;;;12.41;100.00;95949.44;5041849;28;20294;-78
2022/08/08 03:22:09;;;;;;;8.20;4.95;;;;;;;12.33;100.00;95951.84;5034657;28;20035;-78
2022/08/08 03:24:34;;;;;;;9.13;4.65;;;;;;;12.28;100.00;95950.81;5048417;28;20556;-77
2022/08/08 03:27:14;;;;;;;7.97;4.60;;;;;;;12.29;100.00;95947.06;5045826;28;20040;-78
2022/08/08 03:29:46;;;;;;;7.53;5.10;;;;;;;12.22;100.00;95946.56;5053445;28;20053;-77
2022/08/08 03:34:57;;;;;;;7.05;5.25;;;;;;;12.28;100.00;95950.81;5052725;28;20037;-77
2022/08/08 03:37:23;;;;;;;8.10;5.40;;;;;;;12.24;100.00;95949.75;5042736;28;20049;-77
2022/08/08 03:39:48;;;;;;;8.27;4.68;;;;;;;12.25;100.00;95956.59;5051223;28;20052;-77
2022/08/08 03:42:15;;;;;;;8.90;5.30;;;;;;;12.21;100.00;95952.94;5049784;28;20049;-77
2022/08/08 03:44:41;;;;;;;8.05;4.90;;;;;;;12.15;100.00;95948.72;5047586;28;20116;-77
2022/08/08 03:47:06;;;;;;;6.82;5.00;;;;;;;12.08;100.00;95946.38;5052533;28;20044;-77
2022/08/08 03:49:32;;;;;;;9.90;5.57;;;;;;;11.98;100.00;95961.41;5051724;28;20041;-77
2022/08/08 03:51:58;;;;;;;9.60;5.57;;;;;;;11.91;100.00;95946.63;5042590;28;20048;-78
2022/08/08 03:54:25;;;;;;;8.88;5.30;;;;;;;11.98;100.00;95951.63;5049024;28;20068;-77
2022/08/08 03:56:51;;;;;;;8.00;5.13;;;;;;;12.06;100.00;95958.25;5050931;28;20044;-77
2022/08/08 03:59:16;;;;;;;8.20;5.20;;;;;;;12.01;100.00;95952.97;5047052;28;20068;-77
2022/08/08 04:01:42;;;;;;;5.50;4.47;;;;;;;11.99;100.00;95952.44;5055577;28;20041;-77
2022/08/08 04:04:08;;;;;;;10.43;4.72;;;;;;;12.07;100.00;95959.81;5049134;28;20041;-77
2022/08/08 04:06:34;;;;;;;6.78;4.70;;;;;;;12.05;100.00;95961.94;5050068;28;20491;-77
2022/08/08 04:09:03;;;;;;;10.55;4.97;;;;;;;11.95;100.00;95955.63;5050808;28;20045;-77
2022/08/08 04:11:30;;;;;;;7.28;5.28;;;;;;;11.98;100.00;95956.13;5051866;28;20056;-77
2022/08/08 04:13:55;;;;;;;6.45;4.93;;;;;;;11.97;100.00;95965.91;5050992;28;20038;-77
2022/08/08 04:16:21;;;;;;;6.32;4.88;;;;;;;11.91;100.00;95967.72;5053333;28;20041;-77
2022/08/08 04:18:47;;;;;;;7.03;5.00;;;;;;;11.93;100.00;95965.63;5052409;28;20533;-79
2022/08/08 04:21:16;;;;;;;7.78;5.45;;;;;;;11.99;100.00;95968.28;5045700;28;20052;-79
2022/08/08 04:23:42;;;;;;;9.25;5.75;;;;;;;11.94;100.00;95972.50;5047421;28;20108;-78
2022/08/08 04:26:07;;;;;;;9.20;5.30;;;;;;;11.91;100.00;95961.66;5037884;28;20099;-78
2022/08/08 04:28:33;;;;;;;7.75;5.50;;;;;;;11.90;100.00;95968.00;5049706;28;20041;-78
2022/08/08 04:30:58;;;;;;;8.48;4.75;;;;;;;11.86;100.00;95965.09;5054352;28;20044;-78
2022/08/08 04:33:24;;;;;;;8.13;5.25;;;;;;;11.93;100.00;95973.53;5053139;28;20048;-78
2022/08/08 04:35:50;;;;;;;7.30;4.88;;;;;;;11.92;100.00;95985.16;5043010;28;20053;-77
2022/08/08 04:38:15;;;;;;;8.55;5.30;;;;;;;12.07;100.00;95992.25;5051425;28;20052;-77
2022/08/08 04:40:41;;;;;;;8.05;5.47;;;;;;;11.98;100.00;95982.50;5048696;28;20068;-77
2022/08/08 04:43:07;;;;;;;7.47;5.40;;;;;;;12.05;100.00;95993.59;5049784;28;20044;-77
2022/08/08 04:45:32;;;;;;;8.88;5.28;;;;;;;12.09;100.00;95989.34;5050426;28;20509;-77
2022/08/08 04:47:58;;;;;;;8.45;5.38;;;;;;;12.12;100.00;95999.38;5052404;28;20574;-78
2022/08/08 04:50:25;;;;;;;9.68;5.45;;;;;;;12.18;100.00;95998.28;5047935;28;20072;-77
2022/08/08 04:52:51;;;;;;;8.88;5.25;;;;;;;12.26;100.00;96005.69;5049430;28;20174;-77
2022/08/08 04:55:17;;;;;;;9.23;5.38;;;;;;;12.34;100.00;96000.91;5037760;28;20037;-77
2022/08/08 04:57:43;;;;;;;8.93;5.40;;;;;;;12.33;100.00;95999.34;5053261;28;20056;-77
2022/08/08 05:00:09;;;;;;;11.93;6.07;;;;;;;12.46;100.00;96004.06;5048497;28;20043;-78
2022/08/08 05:02:35;;;;;;;8.25;5.18;;;;;;;12.53;100.00;96009.84;5054394;28;20044;-77
2022/08/08 05:05:00;;;;;;;8.27;5.60;;;;;;;12.49;100.00;96011.44;5047122;28;20054;-78
2022/08/08 05:07:26;;;;;;;11.85;6.03;;;;;;;12.52;100.00;96013.53;5051454;28;20068;-77
2022/08/08 05:09:52;;;;;;;8.80;5.20;;;;;;;12.59;100.00;96011.38;5043804;28;20041;-77
2022/08/08 05:12:17;;;;;;;7.72;5.40;;;;;;;12.62;100.00;96013.50;5045833;28;20048;-77
2022/08/08 05:14:43;;;;;;;15.43;6.05;;;;;;;12.70;100.00;96014.00;5046038;28;20048;-77
2022/08/08 05:17:09;;;;;;;8.45;5.15;;;;;;;12.80;100.00;96024.50;5046047;28;20045;-77
2022/08/08 05:19:36;;;;;;;9.35;5.20;;;;;;;12.85;100.00;96021.84;5048544;28;20788;-77
2022/08/08 05:22:02;;;;;;;8.43;5.80;;;;;;;12.96;100.00;96028.69;5045923;28;20547;-77
2022/08/08 05:24:28;;;;;;;10.88;4.95;;;;;;;13.03;100.00;96022.31;5049970;28;20045;-79
2022/08/08 05:26:53;;;;;;;9.55;5.40;;;;;;;13.07;100.00;96018.06;5042304;28;20410;-78
2022/08/08 05:29:19;;;;;;;8.35;5.32;;;;;;;13.06;100.00;96017.28;5044807;28;20486;-79
2022/08/08 05:31:45;;;;;;;7.68;5.43;;;;;;;13.12;100.00;96020.69;5048574;28;20064;-79
2022/08/08 05:34:32;;;;;;;9.30;5.50;;;;;;;13.20;100.00;96022.72;5053573;28;20072;-79
2022/08/08 05:36:59;;;;;;;7.93;5.40;;;;;;;13.20;100.00;96016.66;5047373;28;20040;-77
2022/08/08 05:39:25;;;;;;;9.82;5.57;;;;;;;13.27;100.00;96017.94;5044759;28;20051;-77
2022/08/08 05:41:52;;;;;;;7.78;5.80;;;;;;;13.29;100.00;96026.41;5049982;28;20061;-78
2022/08/08 05:44:27;;;;;;;10.93;5.15;;;;;;;13.40;100.00;96015.78;5050874;28;20052;-77
2022/08/08 05:46:55;;;;;;;9.07;5.72;;;;;;;13.54;100.00;96022.03;5043962;28;20582;-77
2022/08/08 05:49:21;;;;;;;6.90;5.32;;;;;;;13.64;100.00;96023.81;5041588;28;20640;-78
2022/08/08 05:51:47;;;;;;;10.77;6.07;;;;;;;13.67;100.00;96026.69;5047037;28;20099;-78
2022/08/08 05:54:13;;;;;;;10.60;5.40;;;;;;;13.72;100.00;96038.31;5052953;28;20045;-77
2022/08/08 05:56:41;;;;;;;8.65;5.38;;;;;;;13.75;100.00;96043.03;5047860;28;20041;-78
2022/08/08 05:59:16;;;;;;;8.60;5.50;;;;;;;13.76;100.00;96034.81;5045583;28;20124;-78
2022/08/08 06:01:42;;;;;;;8.68;5.60;;;;;;;13.97;100.00;96030.16;5042290;28;20036;-77
2022/08/08 06:04:10;;;;;;;12.50;5.20;;;;;;;14.06;100.00;96033.00;5040413;28;20052;-76
2022/08/08 06:06:39;;;;;;;9.48;5.18;;;;;;;14.08;100.00;96030.06;5035728;28;20045;-76
2022/08/08 06:09:07;;;;;;;7.40;5.30;;;;;;;14.08;100.00;96038.81;5044300;28;20037;-76
2022/08/08 06:11:32;;;;;;;8.05;5.07;;;;;;;14.51;100.00;96038.13;5035030;28;20140;-77
2022/08/08 06:14:04;;;;;;;7.82;5.40;;;;;;;14.52;100.00;96039.72;5038488;28;20116;-76
2022/08/08 06:16:35;;;;;;;7.63;5.00;;;;;;;14.58;100.00;96037.78;5041918;28;20041;-76
2022/08/08 06:19:01;;;;;;;6.88;4.80;;;;;;;14.86;100.00;96036.19;5035984;28;20080;-76
2022/08/08 06:21:27;;;;;;;7.53;4.82;;;;;;;14.93;100.00;96039.28;5039890;28;20091;-77
2022/08/08 06:23:54;;;;;;;6.97;4.50;;;;;;;15.17;100.00;96038.44;5029404;28;20041;-77
2022/08/08 06:26:22;;;;;;;7.53;4.72;;;;;;;15.32;100.00;96045.41;5035299;28;20605;-77
2022/08/08 06:28:52;;;;;;;7.55;4.85;;;;;;;15.39;100.00;96038.66;5042052;28;20094;-76
2022/08/08 06:31:21;;;;;;;7.32;4.97;;;;;;;15.48;100.00;96043.34;5050526;28;20048;-78
2022/08/08 06:34:27;;;;;;;9.05;4.53;;;;;;;15.52;100.00;96041.69;5048712;28;20040;-79
2022/08/08 06:36:56;;;;;;;8.48;4.70;;;;;;;15.46;100.00;96042.81;5022459;28;20041;-78
2022/08/08 06:39:26;;;;;;;6.13;4.88;;;;;;;15.56;100.00;96056.75;5022730;28;20071;-78
2022/08/08 06:42:01;;;;;;;8.77;5.20;;;;;;;15.48;100.00;96044.13;5033872;28;20044;-80
2022/08/08 06:44:27;;;;;;;8.55;5.32;;;;;;;15.51;100.00;96050.72;5051380;28;20036;-80
2022/08/08 06:46:54;;;;;;;7.85;5.13;;;;;;;15.67;100.00;96051.28;5049490;28;20045;-78
2022/08/08 06:49:20;;;;;;;7.97;5.75;;;;;;;15.98;100.00;96051.63;5046339;28;20839;-78
2022/08/08 06:51:45;;;;;;;7.80;5.32;;;;;;;15.88;100.00;96049.91;5044990;28;20045;-79
2022/08/08 06:54:12;;;;;;;8.93;5.70;;;;;;;16.05;100.00;96061.88;5043022;28;20048;-78
2022/08/08 06:56:38;;;;;;;8.50;5.50;;;;;;;16.27;100.00;96054.03;5057602;28;20083;-78
2022/08/08 06:59:04;;;;;;;10.15;6.60;;;;;;;16.43;100.00;96062.56;5059790;28;20051;-80
2022/08/08 07:01:36;;;;;;;7.65;5.50;;;;;;;16.48;100.00;96063.53;5068175;28;20041;-78
2022/08/08 07:04:09;;;;;;;9.25;5.68;;;;;;;16.64;100.00;96072.81;5064089;28;20083;-80
2022/08/08 07:06:40;;;;;;;13.38;7.00;;;;;;;16.49;100.00;96065.09;5068386;28;20052;-78
2022/08/08 07:09:14;;;;;;;10.60;6.45;;;;;;;16.65;100.00;96074.38;5067504;28;20044;-78
2022/08/08 07:11:41;;;;;;;11.27;5.82;;;;;;;16.79;100.00;96064.56;5057610;28;20037;-77
2022/08/08 07:14:11;;;;;;;8.68;5.65;;;;;;;16.87;100.00;96067.59;5064769;28;20068;-77
2022/08/08 07:16:41;;;;;;;8.55;6.43;;;;;;;16.94;100.00;96065.38;5063294;28;20071;-77
2022/08/08 07:19:23;;;;;;;8.45;5.72;;;;;;;16.96;100.00;96079.13;5067274;28;20044;-77
2022/08/08 07:22:11;;;;;;;10.20;5.55;;;;;;;16.95;100.00;96072.25;5070792;28;20051;-78
2022/08/08 07:24:44;;;;;;;12.15;5.90;;;;;;;17.16;100.00;96069.19;5075377;28;20049;-78
2022/08/08 07:27:20;;;;;;;10.80;5.95;;;;;;;17.18;100.00;96075.00;5071602;28;20033;-78
2022/08/08 07:29:46;;;;;;;8.57;5.20;;;;;;;17.14;100.00;96072.94;5066846;28;20482;-78
2022/08/08 07:32:12;;;;;;;11.20;5.22;;;;;;;17.10;100.00;96071.94;5051143;28;20047;-78
2022/08/08 07:34:38;;;;;;;10.45;5.90;;;;;;;17.16;100.00;96077.16;5052431;28;20120;-77
2022/08/08 07:37:04;;;;;;;7.15;4.85;;;;;;;17.16;100.00;96079.81;5044013;28;20043;-77
2022/08/08 07:39:31;;;;;;;9.75;5.13;;;;;;;17.46;100.00;96081.06;5047831;28;20029;-78
2022/08/08 07:41:58;;;;;;;7.97;5.40;;;;;;;17.71;98.46;96093.00;5044247;28;20503;-77
2022/08/08 07:44:24;;;;;;;10.57;5.18;;;;;;;17.66;99.54;96079.81;5053405;28;20041;-78
2022/08/08 07:46:50;;;;;;;10.15;5.20;;;;;;;17.69;97.57;96086.41;5048055;28;20064;-78
2022/08/08 07:49:16;;;;;;;8.43;4.88;;;;;;;17.74;98.33;96081.78;5050432;28;20118;-78
2022/08/08 07:51:42;;;;;;;7.53;5.07;;;;;;;17.62;95.86;96078.84;5046441;28;20667;-78
2022/08/08 07:54:20;;;;;;;7.10;4.80;;;;;;;17.58;99.76;96085.84;5048326;28;20108;-77
2022/08/08 07:56:59;;;;;;;8.25;5.10;;;;;;;17.87;99.97;96076.69;5042374;28;20415;-78
2022/08/08 07:59:29;;;;;;;8.50;4.65;;;;;;;18.12;97.36;96081.44;5047575;28;20048;-77
2022/08/08 08:01:58;;;;;;;10.27;5.28;;;;;;;17.97;95.82;96084.47;5044179;28;20048;-79
2022/08/08 08:04:32;;;;;;;8.38;4.93;;;;;;;18.16;97.30;96082.41;5049997;28;20040;-77
2022/08/08 08:07:01;;;;;;;9.23;4.78;;;;;;;18.08;96.24;96085.78;5048345;28;20556;-77
2022/08/08 08:09:37;;;;;;;7.05;5.07;;;;;;;18.06;96.54;96090.66;5048270;28;20047;-76
2022/08/08 08:12:04;;;;;;;9.88;5.07;;;;;;;18.48;94.03;96088.53;5046560;28;20396;-77
2022/08/08 08:14:52;;;;;;;6.95;4.78;;;;;;;18.31;96.79;96088.44;5058150;28;20033;-77
2022/08/08 08:17:19;;;;;;;8.35;4.75;;;;;;;18.25;94.61;96089.66;5048741;28;20049;-78
2022/08/08 08:19:48;;;;;;;7.82;5.30;;;;;;;18.22;93.33;96091.06;5046142;28;20091;-77
2022/08/08 08:22:14;;;;;;;8.93;4.80;;;;;;;18.23;94.08;96091.84;5057517;28;20045;-78
2022/08/08 08:24:43;;;;;;;8.98;4.70;;;;;;;18.26;95.47;96086.69;5049770;28;20042;-76
2022/08/08 08:27:09;;;;;;;5.88;4.53;;;;;;;18.30;93.97;96092.19;5049853;28;20103;-78
2022/08/08 08:29:35;;;;;;;7.93;4.65;;;;;;;18.53;90.88;96096.41;5050954;28;20564;-77
2022/08/08 08:32:01;;;;;;;7.85;4.55;;;;;;;18.45;90.29;96094.47;5049225;28;20025;-77
2022/08/08 08:34:26;;;;;;;8.88;4.57;;;;;;;18.60;90.46;96092.50;5051897;28;20045;-79
2022/08/08 08:36:51;;;;;;;7.13;4.20;;;;;;;18.62;89.80;96092.97;5049223;28;20406;-76
2022/08/08 08:39:17;;;;;;;6.97;4.10;;;;;;;18.64;86.63;96090.81;5045530;28;20048;-75
2022/08/08 08:41:44;;;;;;;5.35;3.75;;;;;;;18.95;85.45;96090.00;5040499;28;20037;-77
2022/08/08 08:44:10;;;;;;;6.95;4.22;;;;;;;18.82;85.64;96081.81;5048931;28;20083;-78
2022/08/08 08:46:37;;;;;;;5.60;3.97;;;;;;;18.99;85.10;96085.63;5052927;28;20072;-77
2022/08/08 08:49:02;;;;;;;6.32;3.83;;;;;;;19.14;87.18;96082.53;5060668;28;20052;-79
2022/08/08 08:51:30;;;;;;;5.68;3.70;;;;;;;19.25;82.98;96090.25;5051904;28;20045;-77
2022/08/08 08:54:00;;;;;;;5.25;3.67;;;;;;;19.60;79.14;96087.66;5048361;28;20045;-79
2022/08/08 08:56:27;;;;;;;5.00;3.53;;;;;;;19.47;78.18;96084.81;5053123;28;20051;-78
2022/08/08 08:58:54;;;;;;;5.65;3.38;;;;;;;19.67;77.62;96093.31;5047408;28;20041;-77
2022/08/08 09:01:25;;;;;;;5.22;3.30;;;;;;;19.76;76.63;96090.66;5046095;28;20054;-77
2022/08/08 09:03:54;;;;;;;5.60;3.40;;;;;;;19.65;77.58;96100.84;5047181;28;20622;-77
2022/08/08 09:06:28;;;;;;;8.90;3.80;;;;;;;19.55;73.45;96091.25;5052056;28;20052;-77
2022/08/08 09:09:00;;;;;;;;;;;;;;;19.55;75.52;96092.06;5047271;28;20041;-77
2022/08/08 09:11:27;;;;;;;5.90;3.40;;;;;;;19.58;75.47;96095.19;5045932;28;20011;-77
2022/08/08 09:13:53;;;;;;;6.78;3.42;;;;;;;19.58;76.28;96095.94;5051802;28;20049;-77
2022/08/08 09:16:19;;;;;;;6.22;3.60;;;;;;;19.70;75.04;96090.78;5047046;28;20052;-78
2022/08/08 09:18:45;;;;;;;7.28;3.70;;;;;;;19.82;74.92;96095.53;5047826;28;20040;-77
2022/08/08 09:21:12;;;;;;;5.43;3.65;;;;;;;19.91;74.16;96092.84;5050108;28;20125;-77
2022/08/08 09:23:40;;;;;;;5.97;3.67;;;;;;;19.95;73.39;96093.03;5045417;28;20041;-77
2022/08/08 09:26:23;;;;;;;5.63;3.03;;;;;;;20.07;74.33;96085.16;5044912;28;20062;-77
2022/08/08 09:28:51;;;;;;;6.20;3.78;;;;;;;20.36;70.73;96091.72;5037882;28;20037;-77
2022/08/08 09:31:48;;;;;;;5.15;3.53;;;;;;;20.78;71.06;96091.94;5046078;28;20073;-77
2022/08/08 09:34:17;;;;;;;5.28;3.70;;;;;;;20.88;70.50;96096.91;5039618;28;20049;-77
2022/08/08 09:36:46;;;;;;;5.57;3.60;;;;;;;20.62;68.16;96085.53;5035679;28;20056;-75
2022/08/08 09:39:17;;;;;;;7.20;3.90;;;;;;;20.82;69.84;96092.84;5042107;28;20087;-76
2022/08/08 09:41:43;;;;;;;4.72;3.42;;;;;;;20.96;67.42;96091.84;5041158;28;20041;-76
2022/08/08 09:44:19;;;;;;;5.38;3.70;;;;;;;21.43;66.96;96084.53;5038986;28;20036;-76
2022/08/08 09:46:50;;;;;;;4.05;3.20;;;;;;;21.70;65.20;96087.03;5039773;28;20041;-76
2022/08/08 09:49:17;;;;;;;6.05;4.00;;;;;;;21.83;66.48;96091.34;5034448;28;20052;-76
2022/08/08 09:51:49;;;;;;;6.80;4.40;;;;;;;21.65;64.64;96089.91;5044956;28;20072;-76
2022/08/08 09:54:17;;;;;;;5.35;3.80;;;;;;;21.92;63.95;96099.28;5047467;28;20042;-75
2022/08/08 09:56:46;;;;;;;5.70;3.58;;;;;;;21.84;64.26;96090.22;5034498;28;20041;-76
2022/08/08 09:59:22;;;;;;;7.15;3.90;;;;;;;21.81;65.73;96082.84;5033567;28;20044;-76
2022/08/08 10:01:51;;;;;;;5.60;3.95;;;;;;;22.06;67.08;96085.63;5031533;28;20112;-76
2022/08/08 10:04:18;;;;;;;8.38;4.00;;;;;;;21.61;65.18;96084.44;5031279;28;20045;-76
2022/08/08 10:06:46;;;;;;;5.53;3.88;;;;;;;21.78;64.08;96081.59;5032388;28;20030;-76
2022/08/08 10:09:12;;;;;;;4.97;3.70;;;;;;;21.95;64.74;96080.69;5030672;28;20099;-76
2022/08/08 10:11:38;;;;;;;7.72;3.75;;;;;;;21.93;64.40;96084.78;5040445;28;20037;-77
2022/08/08 10:14:04;;;;;;;5.65;3.95;;;;;;;22.30;64.52;96091.06;5040024;28;20072;-77
2022/08/08 10:16:37;;;;;;;6.18;3.95;;;;;;;21.83;61.24;96088.66;5048158;28;20450;-76
2022/08/08 10:19:04;;;;;;;6.03;3.90;;;;;;;22.16;61.58;96087.91;5046353;28;20072;-76
2022/08/08 10:21:32;;;;;;;7.18;3.72;;;;;;;22.58;62.36;96082.44;5041363;28;20289;-76
2022/08/08 10:24:11;;;;;;;7.47;4.00;;;;;;;22.65;60.26;96081.91;5041150;28;20037;-76
2022/08/08 10:26:52;;;;;;;6.93;4.13;;;;;;;22.85;59.56;96085.59;5037709;28;20072;-78
2022/08/08 10:29:58;;;;;;;6.72;3.80;;;;;;;22.99;56.80;96078.00;5031106;28;20046;-78
2022/08/08 10:32:34;;;;;;;7.40;4.10;;;;;;;22.94;58.43;96080.94;5023329;28;20057;-77
2022/08/08 10:35:10;;;;;;;5.75;3.97;;;;;;;23.94;57.44;96078.91;5040546;28;20033;-77
2022/08/08 10:37:37;;;;;;;7.05;4.20;;;;;;;23.98;57.68;96075.19;5038296;28;20053;-77
2022/08/08 10:40:14;;;;;;;7.15;4.03;;;;;;;23.61;57.66;96072.59;5041908;28;20091;-77
2022/08/08 10:42:40;;;;;;;6.72;4.05;;;;;;;23.88;57.00;96075.69;5039359;28;20087;-77
2022/08/08 10:45:07;;;;;;;6.90;3.92;;;;;;;23.85;54.98;96073.66;5041480;28;20040;-77
2022/08/08 10:47:33;;;;;;;6.07;4.18;;;;;;;23.17;55.74;96083.16;5023087;28;20045;-77
2022/08/08 10:50:02;;;;;;;7.53;4.60;;;;;;;22.84;55.64;96081.34;5045015;28;20044;-77
2022/08/08 10:52:40;;;;;;;5.75;4.40;;;;;;;23.41;56.21;96073.53;5042408;28;20045;-78
2022/08/08 10:55:14;;;;;;;6.10;4.18;;;;;;;23.83;54.09;96067.81;5038366;28;20495;-77
2022/08/08 10:57:42;;;;;;;10.13;4.78;;;;;;;24.33;53.09;96074.56;5042901;28;20038;-78
2022/08/08 11:00:09;;;;;;;6.32;4.30;;;;;;;24.16;50.83;96075.66;5040946;28;20041;-77
2022/08/08 11:02:35;;;;;;;6.35;4.32;;;;;;;24.73;51.51;96071.00;5030799;28;20092;-78
2022/08/08 11:05:04;;;;;;;6.32;4.30;;;;;;;25.13;50.12;96071.13;5039955;28;20034;-78
2022/08/08 11:07:32;;;;;;;8.10;4.25;;;;;;;25.96;48.53;96068.31;5046970;28;20136;-77
2022/08/08 11:10:06;;;;;;;7.53;4.50;;;;;;;26.71;48.46;96068.16;5053529;28;20091;-77
2022/08/08 11:12:33;;;;;;;5.28;3.85;;;;;;;27.06;45.57;96062.50;5042757;28;20103;-77
2022/08/08 11:15:00;;;;;;;6.68;4.00;;;;;;;26.43;47.04;96069.97;5045933;28;20052;-78
2022/08/08 11:17:28;;;;;;;6.00;3.97;;;;;;;26.58;46.21;96070.22;5034141;28;20072;-79
2022/08/08 11:19:54;;;;;;;5.30;4.03;;;;;;;27.07;44.47;96074.09;5031252;28;20039;-79
2022/08/08 11:22:24;;;;;;;10.90;4.15;;;;;;;26.56;45.55;96067.84;5042982;28;20064;-78
2022/08/08 11:24:50;;;;;;;8.32;4.05;;;;;;;25.89;46.09;96062.78;5038653;28;20534;-78
2022/08/08 11:27:17;;;;;;;8.30;4.30;;;;;;;26.89;44.75;96063.03;5048548;28;20087;-78
2022/08/08 11:29:46;;;;;;;6.45;4.03;;;;;;;27.04;43.54;96064.81;5040994;28;20064;-78
2022/08/08 11:32:12;;;;;;;9.65;4.40;;;;;;;25.96;44.84;96062.91;5044770;28;20064;-78
2022/08/08 11:34:41;;;;;;;4.82;3.90;;;;;;;26.22;45.09;96059.56;5044380;28;20075;-78
2022/08/08 11:37:08;;;;;;;6.75;3.88;;;;;;;26.83;46.09;96054.44;5039660;28;20507;-77
2022/08/08 11:39:36;;;;;;;8.43;4.47;;;;;;;26.74;43.85;96057.38;5043184;28;20040;-77
2022/08/08 11:42:01;;;;;;;8.18;3.97;;;;;;;27.55;44.58;96057.41;5044878;28;20557;-77
2022/08/08 11:44:29;;;;;;;8.27;4.22;;;;;;;27.45;43.08;96056.91;5044751;28;20045;-78
2022/08/08 11:46:56;;;;;;;8.77;4.30;;;;;;;27.43;42.52;96059.19;5045969;28;20044;-77
2022/08/08 11:49:24;;;;;;;7.13;4.55;;;;;;;26.23;43.20;96050.34;5044635;28;20406;-78
2022/08/08 11:51:53;;;;;;;11.20;4.32;;;;;;;27.80;42.45;96047.69;5040777;28;20044;-78
2022/08/08 11:54:32;;;;;;;8.60;5.00;;;;;;;25.99;44.61;96056.81;5045292;28;20049;-78
2022/08/08 11:57:11;;;;;;;13.30;5.07;;;;;;;27.36;43.83;96058.34;5046632;28;20090;-78
2022/08/08 11:59:43;;;;;;;10.57;4.93;;;;;;;27.05;43.71;96055.56;5038933;28;20036;-78